Time;durP1;ratioP1;P1;durP2;ratioP2;P2;SDS_P1;SDS_P2;PMS_P1;PMS_P2;Temp;Humidity;BMP_temperature;BMP_pressure;BME280_temperature;BME280_humidity;BME280_pressure;Samples;Min_cycle;Max_cycle;Signal;HPM_P1;HPM_P2
2021/04/14 00:05:29;;;;;;;12.07;5.68;;;8.90;71.10;;;;;;12035587;28;20096;-79
2021/04/14 00:11:18;;;;;;;8.20;5.43;;;8.80;71.40;;;;;;12043901;28;20055;-79
2021/04/14 00:17:06;;;;;;;14.27;6.10;;;8.80;71.80;;;;;;12035413;28;20055;-79
2021/04/14 00:22:52;;;;;;;11.98;5.53;;;8.70;72.10;;;;;;12037624;28;20053;-80
2021/04/14 00:28:39;;;;;;;12.90;5.63;;;8.80;72.20;;;;;;12039387;28;20400;-80
2021/04/14 00:34:26;;;;;;;11.25;6.07;;;8.60;72.50;;;;;;12042465;28;20617;-79
2021/04/14 00:40:17;;;;;;;11.32;6.05;;;8.50;73.10;;;;;;12036679;28;20072;-79
2021/04/14 00:46:05;;;;;;;11.93;6.55;;;8.50;73.30;;;;;;12035593;28;20056;-79
2021/04/14 00:51:52;;;;;;;12.73;6.28;;;8.50;73.70;;;;;;12032857;28;20044;-80
2021/04/14 00:57:43;;;;;;;10.27;6.40;;;8.40;73.70;;;;;;12041010;28;20075;-79
2021/04/14 01:03:32;;;;;;;11.20;5.82;;;8.40;73.50;;;;;;12028614;28;20052;-78
2021/04/14 01:09:20;;;;;;;9.63;5.90;;;8.50;73.30;;;;;;12029960;28;20052;-79
2021/04/14 01:15:08;;;;;;;14.23;5.93;;;8.40;73.60;;;;;;12028633;28;20526;-79
2021/04/14 01:20:56;;;;;;;9.27;5.95;;;8.30;73.80;;;;;;12033811;28;20102;-78
2021/04/14 01:26:44;;;;;;;11.63;6.53;;;8.30;74.10;;;;;;12033755;28;20044;-78
2021/04/14 01:32:30;;;;;;;9.68;5.78;;;8.20;74.60;;;;;;12031919;28;20048;-79
2021/04/14 01:38:17;;;;;;;11.38;5.90;;;8.20;74.40;;;;;;12031941;28;20052;-80
2021/04/14 08:12:59;;;;;;;18.80;7.85;;;9.60;72.80;;;;;;12158907;27;20346;-78
2021/04/14 08:18:53;;;;;;;20.77;8.90;;;9.90;73.10;;;;;;12115921;28;20362;-78
2021/04/14 08:24:42;;;;;;;17.23;8.10;;;10.20;71.20;;;;;;12034250;28;21223;-77
2021/04/14 08:30:29;;;;;;;13.07;7.53;;;10.30;68.20;;;;;;12062543;28;20759;-78
2021/04/14 08:36:26;;;;;;;14.65;6.90;;;9.90;66.60;;;;;;12077606;28;20044;-76
2021/04/14 08:42:23;;;;;;;11.05;6.68;;;9.90;67.00;;;;;;12074208;28;20052;-80
2021/04/14 08:48:16;;;;;;;12.52;6.28;;;10.20;66.00;;;;;;12079335;28;20051;-80
2021/04/14 08:54:04;;;;;;;18.73;7.83;;;10.30;66.00;;;;;;12081736;28;20056;-81
2021/04/14 08:59:51;;;;;;;15.35;8.02;;;10.50;65.30;;;;;;12086885;28;20055;-80
2021/04/14 09:05:38;;;;;;;11.20;7.50;;;10.70;64.10;;;;;;12078088;28;20047;-80
2021/04/14 09:11:27;;;;;;;17.50;7.85;;;10.80;63.90;;;;;;12076764;28;20056;-81
2021/04/14 09:17:19;;;;;;;18.48;10.93;;;11.00;63.60;;;;;;12073854;28;20056;-81
2021/04/14 09:23:09;;;;;;;19.85;10.82;;;10.90;58.80;;;;;;12044045;28;20040;-81
2021/04/14 09:28:56;;;;;;;16.92;10.00;;;11.00;60.70;;;;;;12045998;28;20037;-79
2021/04/14 09:34:45;;;;;;;16.45;11.00;;;11.10;60.40;;;;;;12048579;28;20041;-80
2021/04/14 09:40:35;;;;;;;17.45;11.63;;;11.30;59.40;;;;;;12046369;28;20052;-81
2021/04/14 09:46:29;;;;;;;16.83;10.43;;;11.20;55.90;;;;;;12045098;28;20057;-78
2021/04/14 09:52:28;;;;;;;15.57;9.38;;;11.40;55.30;;;;;;12046076;28;20120;-80
2021/04/14 09:58:30;;;;;;;18.50;10.48;;;11.60;57.10;;;;;;12049955;28;20044;-81
2021/04/14 10:04:19;;;;;;;12.50;7.53;;;11.90;56.80;;;;;;12046598;28;20734;-76
2021/04/14 10:10:08;;;;;;;12.63;8.13;;;12.00;54.90;;;;;;12049501;28;20040;-77
2021/04/14 10:15:57;;;;;;;16.23;8.75;;;12.40;55.60;;;;;;12047709;28;20781;-81
2021/04/14 10:21:44;;;;;;;15.88;9.18;;;12.70;53.10;;;;;;12043361;28;20052;-80
2021/04/14 10:27:30;;;;;;;14.15;8.20;;;12.80;52.20;;;;;;12048871;28;20827;-81
2021/04/14 10:33:21;;;;;;;13.00;8.45;;;12.80;51.40;;;;;;12047984;28;20511;-81
2021/04/14 10:39:11;;;;;;;13.45;8.88;;;12.90;52.10;;;;;;12048841;28;20048;-80
2021/04/14 10:45:06;;;;;;;14.75;9.57;;;13.10;51.60;;;;;;12044758;28;20049;-80
2021/04/14 10:51:05;;;;;;;13.85;8.70;;;13.20;51.10;;;;;;12047025;28;20067;-80
2021/04/14 10:57:03;;;;;;;19.77;9.93;;;13.30;50.40;;;;;;12045053;28;20049;-80
2021/04/14 11:02:51;;;;;;;16.13;9.65;;;13.30;50.30;;;;;;12048070;28;20122;-80
2021/04/14 11:08:41;;;;;;;16.48;8.85;;;13.30;51.00;;;;;;12044816;28;20045;-82
2021/04/14 11:14:30;;;;;;;14.98;9.30;;;13.20;50.00;;;;;;12044970;28;20056;-82
2021/04/14 11:20:22;;;;;;;12.00;8.18;;;13.60;50.20;;;;;;12044771;28;20044;-83
2021/04/14 11:26:12;;;;;;;13.07;8.25;;;14.00;49.60;;;;;;12036246;28;20503;-82
2021/04/14 11:32:04;;;;;;;12.68;8.13;;;13.80;48.30;;;;;;12045597;28;20061;-82
2021/04/14 11:37:50;;;;;;;13.00;8.60;;;13.70;48.30;;;;;;12044567;28;20048;-81
2021/04/14 11:43:38;;;;;;;12.63;8.80;;;13.80;50.10;;;;;;12042687;28;20522;-82
2021/04/14 11:49:30;;;;;;;13.65;8.77;;;13.70;49.40;;;;;;12040535;28;20044;-83
2021/04/14 11:55:28;;;;;;;18.55;8.60;;;13.80;49.30;;;;;;12044963;28;20053;-81
2021/04/14 12:01:22;;;;;;;13.43;8.75;;;13.50;48.80;;;;;;12037120;28;20063;-80
2021/04/14 12:07:09;;;;;;;12.77;8.90;;;13.30;49.70;;;;;;12041132;28;20048;-80
2021/04/14 12:12:55;;;;;;;15.73;9.10;;;13.30;50.80;;;;;;12037675;28;20045;-81
2021/04/14 12:18:43;;;;;;;14.90;9.90;;;13.70;48.90;;;;;;12020272;28;20051;-81
2021/04/14 12:24:29;;;;;;;14.50;9.50;;;13.70;47.20;;;;;;12039952;28;20055;-80
2021/04/14 12:30:20;;;;;;;13.27;8.50;;;13.50;48.80;;;;;;12047644;28;20045;-78
2021/04/14 12:36:07;;;;;;;15.80;8.50;;;13.90;48.90;;;;;;12040182;28;20051;-80
2021/04/14 12:41:53;;;;;;;14.50;8.00;;;14.50;48.30;;;;;;12039112;28;20053;-78
2021/04/14 12:47:40;;;;;;;14.32;7.65;;;14.40;47.00;;;;;;12040570;28;20044;-81
2021/04/14 12:53:28;;;;;;;33.20;18.90;;;14.20;46.90;;;;;;12038779;28;20088;-79
2021/04/14 12:59:19;;;;;;;13.93;8.68;;;13.90;48.10;;;;;;12039679;28;20051;-78
2021/04/14 13:05:12;;;;;;;20.05;9.60;;;13.80;48.30;;;;;;12044260;28;20048;-77
2021/04/14 13:11:03;;;;;;;18.30;8.82;;;13.40;48.60;;;;;;12036806;28;20123;-78
2021/04/14 13:16:52;;;;;;;14.85;8.65;;;13.20;48.60;;;;;;12038713;28;20052;-75
2021/04/14 13:22:41;;;;;;;13.18;8.52;;;13.40;49.60;;;;;;12037898;28;20071;-74
2021/04/14 13:28:35;;;;;;;17.50;8.65;;;14.20;48.50;;;;;;12034266;28;20048;-76
2021/04/14 13:34:25;;;;;;;;;;;14.60;47.20;;;;;;12039967;28;20063;-76
2021/04/14 13:40:18;;;;;;;16.20;9.55;;;14.60;47.40;;;;;;12036257;28;19967;-76
2021/04/14 13:46:10;;;;;;;14.90;9.55;;;14.30;47.00;;;;;;12036575;28;20543;-76
2021/04/14 13:52:02;;;;;;;13.10;9.25;;;14.40;48.10;;;;;;12019618;28;20097;-76
2021/04/14 13:58:06;;;;;;;15.23;9.98;;;14.70;46.70;;;;;;12037382;28;20059;-76
2021/04/14 14:03:53;;;;;;;;;;;14.20;45.50;;;;;;12039663;28;20048;-76
2021/04/14 14:09:44;;;;;;;16.10;10.13;;;13.50;45.30;;;;;;12037957;28;19946;-76
2021/04/14 14:15:35;;;;;;;13.77;9.60;;;13.80;46.30;;;;;;12016907;28;20499;-77
2021/04/14 14:21:23;;;;;;;14.00;9.48;;;14.30;45.30;;;;;;12038442;28;20036;-76
2021/04/14 14:27:10;;;;;;;13.25;8.85;;;14.50;47.10;;;;;;12036206;28;20052;-76
2021/04/14 14:32:57;;;;;;;14.55;9.57;;;14.30;47.10;;;;;;12037076;28;20541;-77
2021/04/14 14:38:49;;;;;;;13.15;9.00;;;14.10;46.20;;;;;;12035340;28;20059;-77
2021/04/14 14:44:41;;;;;;;15.40;10.45;;;13.90;46.90;;;;;;12032989;28;20064;-76
2021/04/14 14:50:31;;;;;;;15.30;10.02;;;13.70;47.30;;;;;;12034313;28;20043;-74
2021/04/14 14:56:24;;;;;;;16.38;10.63;;;13.90;47.30;;;;;;12038247;28;20056;-75
2021/04/14 15:02:18;;;;;;;19.45;10.95;;;14.30;46.50;;;;;;12031556;28;20048;-77
2021/04/14 15:08:05;;;;;;;15.70;11.43;;;14.10;46.60;;;;;;12031310;28;20052;-76
2021/04/14 15:13:52;;;;;;;14.48;10.63;;;13.70;47.50;;;;;;12032467;28;20049;-76
2021/04/14 15:19:39;;;;;;;20.58;11.40;;;13.80;48.80;;;;;;12030395;28;20045;-77
2021/04/14 15:25:29;;;;;;;24.63;14.52;;;13.90;47.70;;;;;;12030027;28;20473;-74
2021/04/14 15:31:18;;;;;;;16.70;11.65;;;14.00;47.90;;;;;;12027771;28;20052;-73
2021/04/14 15:37:05;;;;;;;19.52;11.02;;;14.30;48.00;;;;;;12027114;28;20090;-74
2021/04/14 15:42:53;;;;;;;20.27;12.05;;;13.70;49.00;;;;;;12029882;28;20037;-74
2021/04/14 15:48:41;;;;;;;20.80;12.32;;;13.10;52.00;;;;;;12029359;28;20070;-74
2021/04/14 15:54:28;;;;;;;21.48;11.38;;;13.20;53.40;;;;;;12028651;28;20055;-76
2021/04/14 16:00:18;;;;;;;18.05;11.10;;;13.10;53.30;;;;;;12025643;28;20064;-75
2021/04/14 16:06:06;;;;;;;19.13;12.57;;;12.90;52.70;;;;;;12028159;28;20055;-75
2021/04/14 16:11:52;;;;;;;20.23;12.35;;;12.60;54.70;;;;;;12024714;28;20057;-75
2021/04/14 16:17:38;;;;;;;19.85;12.00;;;12.80;56.40;;;;;;12025941;28;20109;-74
2021/04/14 16:23:26;;;;;;;22.73;11.63;;;12.70;55.90;;;;;;12026506;28;20052;-74
2021/04/14 16:29:12;;;;;;;18.80;11.15;;;12.90;55.90;;;;;;12028849;28;20396;-75
2021/04/14 16:35:00;;;;;;;16.17;10.15;;;12.90;54.90;;;;;;12035665;28;20048;-75
2021/04/14 16:40:47;;;;;;;17.75;11.20;;;15.20;52.30;;;;;;12037744;28;20511;-75
2021/04/14 16:46:34;;;;;;;15.73;10.18;;;15.80;49.20;;;;;;12036100;28;20044;-75
2021/04/14 16:52:21;;;;;;;15.45;9.77;;;14.70;50.30;;;;;;12037070;28;20047;-74
2021/04/14 16:58:09;;;;;;;12.85;7.80;;;13.70;52.10;;;;;;12039197;28;20056;-74
2021/04/14 17:03:55;;;;;;;13.85;8.27;;;13.30;54.00;;;;;;12037774;28;20060;-73
2021/04/14 17:09:42;;;;;;;13.88;7.65;;;13.20;53.50;;;;;;12050375;28;20055;-75
2021/04/14 17:15:29;;;;;;;13.50;7.07;;;13.30;53.70;;;;;;12038550;28;20098;-75
2021/04/14 17:21:15;;;;;;;9.32;5.85;;;13.60;52.80;;;;;;12037379;28;20040;-75
2021/04/14 17:27:02;;;;;;;10.05;6.25;;;14.40;52.40;;;;;;12034503;28;20610;-75
2021/04/14 17:32:49;;;;;;;10.20;6.20;;;14.60;50.30;;;;;;12034562;28;20086;-76
2021/04/14 17:38:35;;;;;;;12.43;7.85;;;14.20;51.70;;;;;;12034519;28;20798;-78
2021/04/14 17:44:22;;;;;;;12.20;4.72;;;14.50;51.30;;;;;;12047096;28;20061;-79
2021/04/14 17:50:12;;;;;;;9.85;4.15;;;14.40;50.80;;;;;;12044412;28;20040;-77
2021/04/14 17:56:03;;;;;;;4.13;3.10;;;14.00;50.70;;;;;;12044516;28;20044;-78
2021/04/14 18:01:50;;;;;;;6.38;3.50;;;13.80;50.80;;;;;;12035373;28;20048;-77
2021/04/14 18:07:37;;;;;;;9.65;3.60;;;13.60;51.10;;;;;;12043032;28;20562;-78
2021/04/14 18:13:23;;;;;;;6.40;2.90;;;13.40;51.70;;;;;;12040935;28;20466;-79
2021/04/14 18:19:13;;;;;;;7.82;3.35;;;13.30;52.00;;;;;;12046838;28;20052;-78
2021/04/14 18:25:01;;;;;;;5.07;3.25;;;13.00;51.90;;;;;;12043483;28;20152;-77
2021/04/14 18:30:48;;;;;;;9.10;3.40;;;12.90;52.10;;;;;;12038729;28;20057;-76
2021/04/14 18:36:35;;;;;;;6.55;3.10;;;12.60;52.20;;;;;;12038836;28;20167;-75
2021/04/14 18:42:23;;;;;;;9.23;3.30;;;12.50;52.60;;;;;;12041874;28;20078;-77
2021/04/14 18:48:10;;;;;;;5.97;3.05;;;12.20;53.40;;;;;;12034278;28;20474;-77
2021/04/14 18:53:59;;;;;;;7.15;2.83;;;12.20;54.30;;;;;;12039276;28;21779;-77
2021/04/14 18:59:46;;;;;;;8.63;3.03;;;12.00;54.60;;;;;;12038995;28;20052;-77
2021/04/14 19:05:32;;;;;;;12.23;4.75;;;11.90;55.10;;;;;;12039436;28;20075;-77
2021/04/14 19:11:19;;;;;;;7.30;3.05;;;11.90;55.50;;;;;;12039638;28;20520;-76
2021/04/14 19:17:11;;;;;;;5.75;2.70;;;11.70;55.60;;;;;;12033978;28;20052;-75
2021/04/14 19:22:57;;;;;;;5.95;3.00;;;11.50;55.60;;;;;;12041006;28;20044;-76
2021/04/14 19:28:46;;;;;;;6.72;3.00;;;11.50;56.20;;;;;;12045714;28;20047;-76
2021/04/14 19:34:33;;;;;;;7.13;2.60;;;11.60;56.10;;;;;;12048628;28;20102;-75
2021/04/14 19:40:23;;;;;;;7.05;2.88;;;11.50;56.10;;;;;;12048369;28;20056;-76
2021/04/14 19:46:10;;;;;;;7.45;2.42;;;11.50;56.40;;;;;;12038823;28;20053;-77
2021/04/14 19:51:57;;;;;;;9.15;2.90;;;11.50;56.20;;;;;;12034168;28;20448;-76
2021/04/14 19:57:44;;;;;;;8.30;3.35;;;11.40;56.10;;;;;;12031469;28;20049;-76
2021/04/14 20:03:30;;;;;;;5.90;2.80;;;11.40;56.60;;;;;;12045837;28;22179;-77
2021/04/14 20:09:24;;;;;;;5.78;3.15;;;11.40;56.80;;;;;;12043915;28;20041;-77
2021/04/14 20:15:12;;;;;;;4.90;2.67;;;11.20;56.70;;;;;;12035536;28;20045;-78
2021/04/14 20:20:58;;;;;;;8.02;2.70;;;11.20;56.80;;;;;;12033599;28;20132;-76
2021/04/14 20:26:45;;;;;;;5.38;2.30;;;11.20;56.70;;;;;;12033022;28;20055;-77
2021/04/14 20:32:33;;;;;;;6.75;2.78;;;11.30;57.30;;;;;;12037009;28;20040;-77
2021/04/14 20:38:19;;;;;;;8.45;3.22;;;11.20;57.10;;;;;;12036869;28;20125;-79
2021/04/14 20:44:07;;;;;;;8.45;3.50;;;11.20;57.60;;;;;;12030552;28;20045;-77
2021/04/14 20:49:54;;;;;;;6.80;3.58;;;11.10;58.00;;;;;;12035479;28;20060;-77
2021/04/14 20:55:41;;;;;;;7.00;3.67;;;11.10;58.70;;;;;;12038297;28;20058;-77
2021/04/14 21:01:30;;;;;;;9.20;4.07;;;11.10;59.20;;;;;;12033840;28;20045;-77
2021/04/14 21:07:17;;;;;;;9.48;3.90;;;11.00;59.50;;;;;;12037834;28;20063;-76
2021/04/14 21:13:03;;;;;;;8.18;4.00;;;11.00;59.90;;;;;;12032444;28;20419;-77
2021/04/14 21:18:52;;;;;;;8.68;4.38;;;11.00;60.40;;;;;;12042232;28;20055;-77
2021/04/14 21:24:38;;;;;;;8.70;5.40;;;11.00;61.50;;;;;;12043254;28;20064;-77
2021/04/14 21:30:27;;;;;;;10.25;5.40;;;11.00;62.00;;;;;;12043429;28;20048;-78
2021/04/14 21:36:15;;;;;;;11.27;5.65;;;10.90;62.40;;;;;;12038187;28;20063;-77
2021/04/14 21:42:01;;;;;;;16.75;6.07;;;10.90;62.90;;;;;;12042023;28;20048;-77
2021/04/14 21:47:49;;;;;;;12.88;7.45;;;10.80;63.70;;;;;;12041015;28;20049;-77
2021/04/14 21:53:37;;;;;;;18.98;11.60;;;10.80;64.40;;;;;;12041651;28;20049;-78
2021/04/14 21:59:24;;;;;;;14.45;6.50;;;10.70;65.20;;;;;;12043645;28;20057;-78
2021/04/14 22:05:11;;;;;;;15.55;5.90;;;10.70;65.60;;;;;;12043096;28;20416;-78
2021/04/14 22:11:04;;;;;;;12.95;5.80;;;10.70;66.20;;;;;;12034773;28;20060;-80
2021/04/14 22:16:55;;;;;;;15.40;6.60;;;10.60;66.60;;;;;;12033151;28;20075;-78
2021/04/14 22:22:42;;;;;;;11.90;6.90;;;10.60;67.00;;;;;;12047158;28;20048;-77
2021/04/14 22:28:31;;;;;;;13.13;7.28;;;10.50;67.80;;;;;;12042742;28;20052;-78
2021/04/14 22:34:18;;;;;;;14.70;7.68;;;10.50;68.00;;;;;;12041404;28;20048;-79
2021/04/14 22:40:07;;;;;;;16.15;8.18;;;10.50;68.50;;;;;;12043675;28;20047;-78
2021/04/14 22:45:55;;;;;;;13.48;8.70;;;10.50;69.50;;;;;;12038877;28;20925;-79
2021/04/14 22:51:42;;;;;;;22.27;11.25;;;10.50;69.30;;;;;;12041409;28;20044;-79
2021/04/14 22:57:28;;;;;;;20.38;12.00;;;10.50;69.80;;;;;;12041886;28;20047;-78
2021/04/14 23:03:17;;;;;;;28.70;12.85;;;10.40;70.20;;;;;;12048617;28;20052;-79
2021/04/14 23:09:05;;;;;;;22.77;14.20;;;10.40;70.60;;;;;;12047591;28;20098;-78
2021/04/14 23:14:51;;;;;;;30.45;17.92;;;10.40;71.00;;;;;;12049467;28;20048;-79
2021/04/14 23:20:41;;;;;;;29.98;19.55;;;10.40;71.70;;;;;;12046548;28;20036;-78
2021/04/14 23:26:27;;;;;;;43.47;25.05;;;10.30;72.40;;;;;;12047484;28;20048;-78
2021/04/14 23:32:14;;;;;;;41.40;26.05;;;10.20;73.30;;;;;;12041084;28;20041;-78
2021/04/14 23:38:01;;;;;;;48.85;28.67;;;10.20;74.30;;;;;;12049085;28;20105;-79
2021/04/14 23:43:48;;;;;;;48.47;30.67;;;10.20;74.00;;;;;;12050178;28;20068;-78
2021/04/14 23:49:34;;;;;;;51.28;32.42;;;10.20;74.40;;;;;;12041381;28;20048;-78
2021/04/14 23:55:23;;;;;;;59.08;34.22;;;10.10;74.50;;;;;;12044609;28;20059;-78
